Nuliajuk — CFN5537 — position and weather

sailwx.info

Track history (hours):
 
Tides and Currents Weather Stations Pressure Air Temp Water Temp Dewpoint Dewpoint Depression Visibility Wind Speed Wind Dir Waves Ship Positions

Nuliajuk

Last reported at 2018-Apr-22 13:00 UTC. Time now 2018-Apr-22 14:38 UTC.
Position N 47°24' W 053°06'.

Length 19 m.

Type: Fishing. MMSI: 316019354.

Wind from 320 at 3 knots

Barometer 1013.7 mb
Air temperature 3.9 ° C
Dewpoint 4.5 ° C

Date/timePositionNaut miles runAvg speedWind from/ knotsBaromVisibWave heightAir tempDewpointWater temp
2018-Apr-22 13:00N 47°24' W 053°06'0 0.0 320 / 31013.7 3.9 4.5
2018-Apr-22 12:00N 47°24' W 053°06'0 0.0 270 / 21013.4 3.5 4.1
2018-Apr-22 11:00N 47°24' W 053°06'0 0.0 310 / 21013.0 3.4 4.1
2018-Apr-22 10:00N 47°24' W 053°06'0 0.0 240 / 21012.8 2.5 3.2
2018-Apr-22 09:00N 47°24' W 053°06'0 0.0 250 / 11012.0 0.6 1.3
2018-Apr-22 08:00N 47°24' W 053°06'0 0.0 260 / 11011.7 0.8 1.5
2018-Apr-22 07:00N 47°24' W 053°06'0 0.0 250 / 11011.1 0.9 1.6
2018-Apr-22 06:00N 47°24' W 053°06'0 0.0 240 / 11010.7 1.6 2.3
2018-Apr-22 05:00N 47°24' W 053°06'0 0.0 220 / 31010.3 1.3 1.9
2018-Apr-22 04:00N 47°24' W 053°06'0 0.0 210 / 31010.1 1.0 1.7
2018-Apr-22 03:00N 47°24' W 053°06'0 0.0 210 / 31009.8 0.9 1.6
2018-Apr-22 02:00N 47°24' W 053°06'0 0.0 220 / 41009.5 1.0 1.6
2018-Apr-22 01:00N 47°24' W 053°06'0 0.0 210 / 41009.5 1.2 1.8
2018-Apr-22 00:00N 47°24' W 053°06'0 0.0 220 / 41009.2 1.5 2.1
2018-Apr-21 23:00N 47°24' W 053°06'0 0.0 220 / 41008.4 1.8 2.4
2018-Apr-21 22:00N 47°24' W 053°06'0 0.0 220 / 51007.8 2.5 3.2
2018-Apr-21 21:00N 47°24' W 053°06'0 0.0 230 / 51007.2 3.2 3.8
2018-Apr-21 20:00N 47°24' W 053°06'0 0.0 220 / 41006.6 3.8 4.5
2018-Apr-21 19:00N 47°24' W 053°06'0 0.0 220 / 51006.1 4.6 5.3
2018-Apr-21 18:00N 47°24' W 053°06'0 0.0 240 / 41005.8 4.6 5.3
2018-Apr-21 17:00N 47°24' W 053°06'0 0.0 220 / 51005.6 5.0 5.7
2018-Apr-21 16:00N 47°24' W 053°06'0 0.0 250 / 31005.1 5.8 6.5
2018-Apr-21 15:00N 47°24' W 053°06'0 0.0 230 / 41004.9 5.6 6.3
2018-Apr-21 14:00N 47°24' W 053°06'0 0.0 210 / 61004.6 4.8 5.5
2018-Apr-21 13:00N 47°24' W 053°06'0 0.0 220 / 41004.4 2.9 3.6
2018-Apr-21 12:00N 47°24' W 053°06'0 0.0 220 / 51003.6 3.2 3.9
2018-Apr-21 11:00N 47°24' W 053°06'0 0.0 230 / 41003.7 1.3 2.1
2018-Apr-21 10:00N 47°24' W 053°06'0 0.0 210 / 41003.3 0.6 1.4
2018-Apr-21 09:00N 47°24' W 053°06'0 0.0 190 / 71002.9 0.1 0.9
2018-Apr-21 08:00N 47°24' W 053°06'0 0.0 190 / 41002.5 0.4 1.2
2018-Apr-21 07:00N 47°24' W 053°06'0 0.0 180 / 71002.4 0.5 1.3
2018-Apr-21 06:00N 47°24' W 053°06'0 0.0 200 / 41001.9 1.1 1.8
2018-Apr-21 05:00N 47°24' W 053°06'0 0.0 200 / 41001.5 1.1 1.9
2018-Apr-21 04:00N 47°24' W 053°06'0 0.0 200 / 81001.9 1.0 1.8
2018-Apr-21 03:00N 47°24' W 053°06'0 0.0 200 / 71001.6 1.3 2.1
2018-Apr-21 02:00N 47°24' W 053°06'0 0.0 190 / 71001.7 1.8 2.7
2018-Apr-21 01:00N 47°24' W 053°06'0 0.0 200 / 81002.0 1.9 2.7
2018-Apr-21 00:00N 47°24' W 053°06'0 0.0 180 / 81002.4 2.5 3.3
2018-Apr-20 23:00N 47°24' W 053°06'0 0.0 190 / 71002.3 2.5 3.4
2018-Apr-20 22:00N 47°24' W 053°06'0 0.0 190 / 61002.8 3.0 3.9
2018-Apr-20 21:00N 47°24' W 053°06'0 0.0 180 / 121002.7 4.3 5.2
2018-Apr-20 20:00N 47°24' W 053°06'0 0.0 190 / 51001.5 7.3 8.4
2018-Apr-20 19:00N 47°24' W 053°06'0 0.0 180 / 51002.5 5.0 6.1
2018-Apr-20 18:00N 47°24' W 053°06'0 0.0 190 / 61003.3 3.9 5.0
2018-Apr-20 17:00N 47°24' W 053°06'0 0.0 160 / 51003.6 4.4 5.4
2018-Apr-20 16:00N 47°24' W 053°06'0 0.0 140 / 61003.8 4.2 5.2
2018-Apr-20 15:00N 47°24' W 053°06'0 0.0 120 / 41005.3 3.6 4.6
2018-Apr-20 14:00N 47°24' W 053°06'0 0.0 120 / 51006.0 3.2 4.1
2018-Apr-20 13:00N 47°24' W 053°06'0 0.0 070 / 41006.6 2.4 3.3
2018-Apr-20 12:00N 47°24' W 053°06'0 0.0 070 / 61006.9 2.4 3.4
2018-Apr-20 11:00N 47°24' W 053°06'0 0.0 080 / 31008.0 2.3 3.2
2018-Apr-20 10:00N 47°24' W 053°06'0 0.0 360 / 61008.4 2.2 3.1
2018-Apr-20 09:00N 47°24' W 053°06'0 0.0 1009.2 1.9 2.8
2018-Apr-20 08:00N 47°24' W 053°06'0 0.0 350 / 11009.7 1.5 2.4
2018-Apr-20 07:00N 47°24' W 053°06'0 0.0 260 / 11009.8 1.3 2.2
2018-Apr-20 06:00N 47°24' W 053°06'0 0.0 140 / 21010.8 2.2 3.0
2018-Apr-20 05:00N 47°24' W 053°06'0 0.0 170 / 41010.4 1.3 2.1
2018-Apr-20 04:00N 47°24' W 053°06'0 0.0 210 / 41010.5 0.8 1.6
2018-Apr-20 03:00N 47°24' W 053°06'0 0.0 200 / 41010.6 1.8 2.5
2018-Apr-20 02:00N 47°24' W 053°06'0 0.0 190 / 21010.7 2.1 2.9
2018-Apr-20 01:00N 47°24' W 053°06'0 0.0 170 / 41009.9 2.7 3.5
2018-Apr-20 00:00N 47°24' W 053°06'0 0.0 240 / 11010.1 3.1 3.8
2018-Apr-19 23:00N 47°24' W 053°06'0 0.0 180 / 51008.9 3.8 4.6
2018-Apr-19 22:00N 47°24' W 053°06'0 0.0 210 / 51008.2 5.0 5.7
2018-Apr-19 21:00N 47°24' W 053°06'0 0.0 210 / 41006.9 6.6 7.3
2018-Apr-19 20:00N 47°24' W 053°06'0 0.0 210 / 61006.5 6.5 7.2
2018-Apr-19 19:00N 47°24' W 053°06'0 0.0 210 / 61006.4 7.6 8.3
2018-Apr-19 18:00N 47°24' W 053°06'0 0.0 220 / 81005.7 8.9 9.7
2018-Apr-19 17:00N 47°24' W 053°06'0 0.0 230 / 61005.9 7.9 8.6
2018-Apr-19 16:00N 47°24' W 053°06'0 0.0 220 / 61005.2 7.5 8.2
2018-Apr-19 15:00N 47°24' W 053°06'0 0.0 210 / 61004.9 6.6 7.4
2018-Apr-19 14:00N 47°24' W 053°06'0 0.0 180 / 71005.0 4.6 5.5
2018-Apr-19 13:00N 47°24' W 053°06'0 0.0 190 / 51004.7 3.4 4.3
2018-Apr-19 12:00N 47°24' W 053°06'0 0.0 200 / 31004.1 2.7 3.6
2018-Apr-19 11:00N 47°24' W 053°06'0 0.0 200 / 41003.7 2.6 3.5
2018-Apr-19 10:00N 47°24' W 053°06'0 0.0 190 / 41003.4 2.2 3.1
2018-Apr-19 09:00N 47°24' W 053°06'0 0.0 180 / 51002.8 2.3 3.1
2018-Apr-19 08:00N 47°24' W 053°06'0 0.0 190 / 31002.4 2.2 3.1
2018-Apr-19 07:00N 47°24' W 053°06'0 0.0 190 / 51002.6 2.4 3.3
2018-Apr-19 06:00N 47°24' W 053°06'0 0.0 190 / 51002.3 2.6 3.5
2018-Apr-19 05:00N 47°24' W 053°06'0 0.0 180 / 51001.4 3.9 4.8
2018-Apr-19 04:00N 47°24' W 053°06'0 0.0 180 / 31001.6 3.5 4.4
2018-Apr-19 03:00N 47°24' W 053°06'0 0.0 180 / 41001.9 3.4 4.3
2018-Apr-19 02:00N 47°24' W 053°06'0 0.0 210 / 31000.9 3.3 4.3
2018-Apr-19 01:00N 47°24' W 053°06'0 0.0 190 / 41000.6 4.0 4.9
2018-Apr-19 00:00N 47°24' W 053°06'0 0.0 170 / 2999.7 4.6 5.6
2018-Apr-18 23:00N 47°24' W 053°06'0 0.0 210 / 5999.5 6.0 7.0
2018-Apr-18 22:00N 47°24' W 053°06'0 0.0 190 / 2998.3 8.1 9.3
2018-Apr-18 21:00N 47°24' W 053°06'0 0.0 190 / 3997.9 8.7 9.9
2018-Apr-18 20:00N 47°24' W 053°06'0 0.0 170 / 6998.2 9.410.6
2018-Apr-18 19:00N 47°24' W 053°06'0 0.0 180 / 6998.7 8.810.0
2018-Apr-18 18:00N 47°24' W 053°06'0 0.0 180 / 6999.9 6.9 8.0
2018-Apr-18 17:00N 47°24' W 053°06'0 0.0 170 / 111000.9 5.7 6.7
2018-Apr-18 16:00N 47°24' W 053°06'0 0.0 170 / 151002.7 3.6 4.5
2018-Apr-18 14:00N 47°24' W 053°06'0 0.0 150 / 161005.7 2.9 3.8
2018-Apr-18 13:00N 47°24' W 053°06'0 0.0 150 / 161007.6 2.6 3.4
2018-Apr-18 12:00N 47°24' W 053°06'0 0.0 150 / 161009.8 2.0 2.8
2018-Apr-18 11:00N 47°24' W 053°06'0 0.0 160 / 161011.1 1.3 2.0
2018-Apr-18 10:00N 47°24' W 053°06'0 0.0 160 / 141012.5 1.0 1.7
2018-Apr-18 09:00N 47°24' W 053°06'0 0.0 160 / 121013.7 1.2 1.9
2018-Apr-18 08:00N 47°24' W 053°06'0 0.0 170 / 51015.2 1.7 2.3
2018-Apr-18 07:00N 47°24' W 053°06'0 0.0 210 / 11016.6 1.2 1.8
2018-Apr-18 06:00N 47°24' W 053°06'0 0.0 170 / 81017.7 1.5 2.1
2018-Apr-18 05:00N 47°24' W 053°06'0 0.0 170 / 41018.6 1.1 1.7
2018-Apr-18 04:00N 47°24' W 053°06'0 0.0 160 / 51019.6 1.1 1.7
2018-Apr-18 03:00N 47°24' W 053°06'0 0.0 180 / 41020.8 0.4 1.0
2018-Apr-18 02:00N 47°24' W 053°06'0 0.0 180 / 41021.6 -0.1 0.5
2018-Apr-18 01:00N 47°24' W 053°06'0 0.0 170 / 41022.4 -0.1 0.4
2018-Apr-18 00:00N 47°24' W 053°06'0 0.0 170 / 51022.5 -0.4 0.2
2018-Apr-17 23:00N 47°24' W 053°06'0 0.0 170 / 31022.6 0.2 0.8
2018-Apr-17 22:00N 47°24' W 053°06'0 0.0 170 / 21022.5 1.6 2.3
2018-Apr-17 21:00N 47°24' W 053°06'0 0.0 020 / 61022.5 1.5 2.2
2018-Apr-17 20:00N 47°24' W 053°06'0 0.0 010 / 71022.4 2.1 2.8
2018-Apr-17 19:00N 47°24' W 053°06'0 0.0 350 / 81022.5 2.8 3.4
2018-Apr-17 18:00N 47°24' W 053°06'0 0.0 020 / 71022.5 4.0 4.6
2018-Apr-17 17:00N 47°24' W 053°06'0 0.0 010 / 71022.9 4.2 4.8
2018-Apr-17 16:00N 47°24' W 053°06'0 0.0 010 / 71022.9 3.8 4.3
2018-Apr-17 15:00N 47°24' W 053°06'0 0.0 020 / 51023.3 4.2 4.8
2018-Apr-17 14:00N 47°24' W 053°06'0 0.0 020 / 61023.7 2.7 3.3
2018-Apr-17 13:00N 47°24' W 053°06'0 0.0 030 / 31024.0 2.8 3.4
2018-Apr-17 12:00N 47°24' W 053°06'0 0.0 050 / 21024.1 1.5 2.0
2018-Apr-17 11:00N 47°24' W 053°06'0 0.0 200 / 21024.5 -0.5-0.0
2018-Apr-17 10:00N 47°24' W 053°06'0 0.0 220 / 31024.6 -2.7-2.3
2018-Apr-17 09:00N 47°24' W 053°06'0 0.0 270 / 11024.4 -5.1-4.7
2018-Apr-17 08:00N 47°24' W 053°06'0 0.0 310 / 11024.5 -3.7-3.3
2018-Apr-17 07:00N 47°24' W 053°06'0 0.0 240 / 21024.7 -6.0-5.6
2018-Apr-17 06:00N 47°24' W 053°06'0 0.0 1025.0 -5.1-4.7
2018-Apr-17 05:00N 47°24' W 053°06'0 0.0 1024.9 -5.2-4.9
2018-Apr-17 04:00N 47°24' W 053°06'0 0.0 240 / 11025.2 -5.0-4.6
2018-Apr-17 03:00N 47°24' W 053°06'0 0.0 320 / 11025.5 -4.3-3.9
2018-Apr-17 02:00N 47°24' W 053°06'0 0.0 180 / 11025.6 -3.6-3.2
2018-Apr-17 01:00N 47°24' W 053°06'0 0.0 160 / 11025.8 -2.3-1.9
2018-Apr-17 00:00N 47°24' W 053°06'0 0.0 1026.1 -1.5-1.0
2018-Apr-16 23:00N 47°24' W 053°06'0 0.0 330 / 11025.6 -0.4-0.0
2018-Apr-16 22:00N 47°24' W 053°06'0 0.0 320 / 21025.0 0.8 1.3
2018-Apr-16 21:00N 47°24' W 053°06'0 0.0 020 / 81025.1 2.4 2.8
2018-Apr-16 20:00N 47°24' W 053°06'0 0.0 020 / 81024.9 2.5 3.0
2018-Apr-16 19:00N 47°24' W 053°06'0 0.0 350 / 141025.0 3.9 4.3
2018-Apr-16 18:00N 47°24' W 053°06'0 0.0 350 / 111025.4 4.2 4.7
2018-Apr-16 17:00N 47°24' W 053°06'0 0.0 340 / 101025.4 3.7 4.2
2018-Apr-16 16:00N 47°24' W 053°06'0 0.0 350 / 121025.9 2.9 3.3
2018-Apr-16 15:00N 47°24' W 053°06'0 0.0 350 / 111026.3 2.8 3.3
2018-Apr-16 14:00N 47°24' W 053°06'0 0.0 350 / 121027.0 2.0 2.5
2018-Apr-16 13:00N 47°24' W 053°06'0 0.0 330 / 71027.1 1.7 2.2
2018-Apr-16 12:00N 47°24' W 053°06'0 0.0 330 / 71027.7 1.2 1.6
2018-Apr-16 11:00N 47°24' W 053°06'0 0.0 350 / 81028.1 0.2 0.6
2018-Apr-16 10:00N 47°24' W 053°06'0 0.0 320 / 41028.2 -0.6-0.1
2018-Apr-16 09:00N 47°24' W 053°06'0 0.0 300 / 31028.1 -1.7-1.3
2018-Apr-16 08:00N 47°24' W 053°06'0 0.0 310 / 21027.9 -1.7-1.3
2018-Apr-16 07:00N 47°24' W 053°06'0 0.0 340 / 51028.1 -1.0-0.6
2018-Apr-16 06:00N 47°24' W 053°06'0 0.0 350 / 91028.1 -0.7-0.3
2018-Apr-16 05:00N 47°24' W 053°06'0 0.0 340 / 81028.2 -0.8-0.4
2018-Apr-16 04:00N 47°24' W 053°06'0 0.0 360 / 141027.6 -0.4-0.0
2018-Apr-16 03:00N 47°24' W 053°06'0 0.0 350 / 171027.2 0.2 0.6
2018-Apr-16 02:00N 47°24' W 053°06'0 0.0 350 / 141026.3 0.7 1.1
2018-Apr-16 01:00N 47°24' W 053°06'0 0.0 350 / 171025.5 0.8 1.2
2018-Apr-16 00:00N 47°24' W 053°06'0 0.0 350 / 161024.6 0.9 1.4
2018-Apr-15 23:00N 47°24' W 053°06'0 0.0 340 / 131023.5 0.8 1.3
2018-Apr-15 22:00N 47°24' W 053°06'0 0.0 340 / 131022.3 0.5 1.1
2018-Apr-15 21:00N 47°24' W 053°06'0 0.0 340 / 141020.9 1.1 1.6
2018-Apr-15 20:00N 47°24' W 053°06'0 0.0 340 / 191019.4 1.7 2.2
2018-Apr-15 19:00N 47°24' W 053°06'0 0.0 340 / 161018.4 2.4 2.9
2018-Apr-15 18:00N 47°24' W 053°06'0 0.0 350 / 171017.5 2.9 3.4
2018-Apr-15 17:00N 47°24' W 053°06'0 0.0 340 / 121016.5 2.5 2.9
2018-Apr-15 16:00N 47°24' W 053°06'0 0.0 330 / 101015.9 2.4 2.8
2018-Apr-15 15:00N 47°24' W 053°06'0 0.0 320 / 61015.6 1.1 1.5
2018-Apr-15 14:00N 47°24' W 053°06'0 0.0 320 / 71014.5 0.7 1.1
2018-Apr-15 13:00N 47°24' W 053°06'0 0.0 300 / 41014.3 -1.0-0.6
2018-Apr-15 12:00N 47°24' W 053°06'0 0.0 300 / 21014.0 -2.9-2.6
2018-Apr-15 11:00N 47°24' W 053°06'0 0.0 310 / 31013.4 -4.0-3.7
2018-Apr-15 10:00N 47°24' W 053°06'0 0.0 300 / 11011.9 -4.5-4.2
2018-Apr-15 09:00N 47°24' W 053°06'0 0.0 240 / 21010.3 -4.8-4.5
2018-Apr-15 08:00N 47°24' W 053°06'0 0.0 320 / 61008.3 -4.4-4.1
2018-Apr-15 07:00N 47°24' W 053°06'0 0.0 310 / 51007.0 -3.9-3.6
2018-Apr-15 06:00N 47°24' W 053°06'0 0.0 330 / 71006.1 -3.4-3.1
2018-Apr-15 05:00N 47°24' W 053°06'0 0.0 320 / 71004.9 -3.2-2.8
2018-Apr-15 04:00N 47°24' W 053°06'0 0.0 330 / 61003.9 -3.2-2.9
2018-Apr-15 03:00N 47°24' W 053°06'0 0.0 320 / 41002.9 -3.4-3.1
2018-Apr-15 02:00N 47°24' W 053°06'0 0.0 310 / 51002.2 -3.4-3.1
2018-Apr-15 01:00N 47°24' W 053°06'0 0.0 310 / 61001.7 -3.4-3.0
2018-Apr-15 00:00N 47°24' W 053°06'0 0.0 310 / 61001.0 -2.8-2.5
2018-Apr-14 23:00N 47°24' W 053°06'0 0.0 310 / 7999.2 -1.7-1.4
2018-Apr-14 22:00N 47°24' W 053°06'0 0.0 300 / 5998.5 -0.0 0.6
2018-Apr-14 21:00N 47°24' W 053°06'0 0.0 310 / 4998.2 1.3 2.0
2018-Apr-14 20:00N 47°24' W 053°06'0 0.0 230 / 6997.4 3.7 4.5
2018-Apr-14 19:00N 47°24' W 053°06'0 0.0 200 / 6998.8 4.0 4.8
2018-Apr-14 18:00N 47°24' W 053°06'0 0.0 200 / 51000.6 4.4 5.2
2018-Apr-14 17:00N 47°24' W 053°06'0 0.0 190 / 71003.2 4.6 5.3
2018-Apr-14 16:00N 47°24' W 053°06'0 0.0 200 / 61004.8 5.1 5.9
2018-Apr-14 15:00N 47°24' W 053°06'0 0.0 210 / 41006.2 3.6 4.4
2018-Apr-14 14:00N 47°24' W 053°06'0 0.0 220 / 41007.1 2.6 3.5
2018-Apr-14 13:00N 47°24' W 053°06'0 0.0 220 / 41007.4 2.1 3.0
2018-Apr-14 12:00N 47°24' W 053°06'0 0.0 260 / 31007.0 1.7 2.7
2018-Apr-14 11:00N 47°24' W 053°06'0 0.0 240 / 21007.1 2.0 3.0
2018-Apr-14 10:00N 47°24' W 053°06'0 0.0 240 / 31006.7 1.7 2.7
2018-Apr-14 09:00N 47°24' W 053°06'0 0.0 220 / 31006.0 1.4 2.4
2018-Apr-14 08:00N 47°24' W 053°06'0 0.0 220 / 31005.4 1.6 2.6
2018-Apr-14 07:00N 47°24' W 053°06'0 0.0 170 / 51005.2 2.0 3.0
2018-Apr-14 06:00N 47°24' W 053°06'0 0.0 170 / 51005.8 1.4 2.3
2018-Apr-14 05:00N 47°24' W 053°06'0 0.0 190 / 101007.1 0.4 1.2
2018-Apr-14 04:00N 47°24' W 053°06'0 0.0 170 / 171008.7 0.2 1.0
2018-Apr-14 03:00N 47°24' W 053°06'0 0.0 170 / 161010.4 0.4 1.2
2018-Apr-14 02:00N 47°24' W 053°06'0 0.0 170 / 101013.0 0.1 0.8
2018-Apr-14 01:00N 47°24' W 053°06'0 0.0 160 / 91015.2 0.1 0.8
2018-Apr-14 00:00N 47°24' W 053°06'0 0.0 170 / 71017.4 -0.6 0.1
2018-Apr-13 23:00N 47°24' W 053°06'0 0.0 160 / 81018.5 0.7 1.3
2018-Apr-13 22:00N 47°24' W 053°06'0 0.0 180 / 81018.8 1.8 2.3
2018-Apr-13 21:00N 47°24' W 053°06'0 0.0
2018-Apr-13 20:00N 47°24' W 053°06'0 0.0 200 / 121020.5 4.1 4.6
2018-Apr-13 19:00N 47°24' W 053°06'0 0.0 180 / 101021.2 4.9 5.4
2018-Apr-13 18:00N 47°24' W 053°06'0 0.0 180 / 111021.7 6.7 7.2
2018-Apr-13 17:00N 47°24' W 053°06'0 0.0 220 / 51022.1 6.8 7.4
2018-Apr-13 16:00N 47°24' W 053°06'0 0.0 160 / 51022.5 7.0 7.6
2018-Apr-13 15:00N 47°24' W 053°06'0 0.0 180 / 81023.0 5.8 6.4
2018-Apr-13 14:00N 47°24' W 053°06'0 0.0 200 / 31023.9 5.2 5.8
2018-Apr-13 13:00N 47°24' W 053°06'0 0.0 230 / 41023.7 3.7 4.4
2018-Apr-13 12:00N 47°24' W 053°06'0 0.0 230 / 41024.1 2.0 2.6
2018-Apr-13 11:00N 47°24' W 053°06'0 0.0 070 / 11024.1 -0.1 0.5
2018-Apr-13 10:00N 47°24' W 053°06'0 0.0 120 / 11023.8 -3.2-2.6
2018-Apr-13 09:00N 47°24' W 053°06'0 0.0 210 / 21023.3 -6.7-6.2
2018-Apr-13 08:00N 47°24' W 053°06'0 0.0 1023.2 -6.0-5.5
2018-Apr-13 07:00N 47°24' W 053°06'0 0.0 1022.4 -6.0-5.5
2018-Apr-13 06:00N 47°24' W 053°06'0 0.0 1021.7 -5.0-4.5
2018-Apr-13 05:00N 47°24' W 053°06'0 0.0 1021.3 -4.6-4.1
2018-Apr-13 04:00N 47°24' W 053°06'0 0.0 150 / 11021.4 -3.5-3.0
2018-Apr-13 03:00N 47°24' W 053°06'0 0.0 1021.1 -3.6-3.1
2018-Apr-13 02:00N 47°24' W 053°06'0 0.0 1020.7 -2.0-1.5
2018-Apr-13 01:00N 47°24' W 053°06'0 0.0 1020.2 -1.7-1.2
2018-Apr-13 00:00N 47°24' W 053°06'0 0.0 1019.6 -1.2-0.7
2018-Apr-12 23:00N 47°24' W 053°06'0 0.0 030 / 31019.0 -0.2 0.4
2018-Apr-12 22:00N 47°24' W 053°06'0 0.0 030 / 51018.4 1.1 1.7
2018-Apr-12 21:00N 47°24' W 053°06'0 0.0 010 / 101018.0 1.8 2.3
2018-Apr-12 20:00N 47°24' W 053°06'0 0.0 360 / 101017.8 1.0 1.7
2018-Apr-12 19:00N 47°24' W 053°06'0 0.0 010 / 111017.9 0.6 1.3
2018-Apr-12 18:00N 47°24' W 053°06'0 0.0 010 / 121017.8 0.2 0.9
2018-Apr-12 17:00N 47°24' W 053°06'0 0.0 010 / 111018.0 -0.0 0.6
2018-Apr-12 16:00N 47°24' W 053°06'0 0.0 020 / 111018.1 -0.2 0.5
2018-Apr-12 15:00N 47°24' W 053°06'0 0.0 020 / 81018.5 -0.5 0.2
2018-Apr-12 14:00N 47°24' W 053°06'0 0.0 010 / 81019.0 0.2 0.9
2018-Apr-12 13:00N 47°24' W 053°06'   010 / 101019.2 -0.6 0.1
Track history (hours):
 
Tides and Currents Weather Stations Pressure Air Temp Water Temp Dewpoint Dewpoint Depression Visibility Wind Speed Wind Dir Waves Ship Positions

Nuliajuk

Last reported at 2018-Apr-22 13:00 UTC. Time now 2018-Apr-22 14:38 UTC.
Position N 47°24' W 053°06'.

Length 19 m.

Type: Fishing. MMSI: 316019354.

Wind from 320 at 3 knots

Barometer 1013.7 mb
Air temperature 3.9 ° C
Dewpoint 4.5 ° C

Date/timePositionNaut miles runAvg speedWind from/ knotsBaromVisibWave heightAir tempDewpointWater temp
2018-Apr-22 13:00N 47°24' W 053°06'0 0.0 320 / 31013.7 3.9 4.5
2018-Apr-22 12:00N 47°24' W 053°06'0 0.0 270 / 21013.4 3.5 4.1
2018-Apr-22 11:00N 47°24' W 053°06'0 0.0 310 / 21013.0 3.4 4.1
2018-Apr-22 10:00N 47°24' W 053°06'0 0.0 240 / 21012.8 2.5 3.2
2018-Apr-22 09:00N 47°24' W 053°06'0 0.0 250 / 11012.0 0.6 1.3
2018-Apr-22 08:00N 47°24' W 053°06'0 0.0 260 / 11011.7 0.8 1.5
2018-Apr-22 07:00N 47°24' W 053°06'0 0.0 250 / 11011.1 0.9 1.6
2018-Apr-22 06:00N 47°24' W 053°06'0 0.0 240 / 11010.7 1.6 2.3
2018-Apr-22 05:00N 47°24' W 053°06'0 0.0 220 / 31010.3 1.3 1.9
2018-Apr-22 04:00N 47°24' W 053°06'0 0.0 210 / 31010.1 1.0 1.7
2018-Apr-22 03:00N 47°24' W 053°06'0 0.0 210 / 31009.8 0.9 1.6
2018-Apr-22 02:00N 47°24' W 053°06'0 0.0 220 / 41009.5 1.0 1.6
2018-Apr-22 01:00N 47°24' W 053°06'0 0.0 210 / 41009.5 1.2 1.8
2018-Apr-22 00:00N 47°24' W 053°06'0 0.0 220 / 41009.2 1.5 2.1
2018-Apr-21 23:00N 47°24' W 053°06'0 0.0 220 / 41008.4 1.8 2.4
2018-Apr-21 22:00N 47°24' W 053°06'0 0.0 220 / 51007.8 2.5 3.2
2018-Apr-21 21:00N 47°24' W 053°06'0 0.0 230 / 51007.2 3.2 3.8
2018-Apr-21 20:00N 47°24' W 053°06'0 0.0 220 / 41006.6 3.8 4.5
2018-Apr-21 19:00N 47°24' W 053°06'0 0.0 220 / 51006.1 4.6 5.3
2018-Apr-21 18:00N 47°24' W 053°06'0 0.0 240 / 41005.8 4.6 5.3
2018-Apr-21 17:00N 47°24' W 053°06'0 0.0 220 / 51005.6 5.0 5.7
2018-Apr-21 16:00N 47°24' W 053°06'0 0.0 250 / 31005.1 5.8 6.5
2018-Apr-21 15:00N 47°24' W 053°06'0 0.0 230 / 41004.9 5.6 6.3
2018-Apr-21 14:00N 47°24' W 053°06'0 0.0 210 / 61004.6 4.8 5.5
2018-Apr-21 13:00N 47°24' W 053°06'0 0.0 220 / 41004.4 2.9 3.6
2018-Apr-21 12:00N 47°24' W 053°06'0 0.0 220 / 51003.6 3.2 3.9
2018-Apr-21 11:00N 47°24' W 053°06'0 0.0 230 / 41003.7 1.3 2.1
2018-Apr-21 10:00N 47°24' W 053°06'0 0.0 210 / 41003.3 0.6 1.4
2018-Apr-21 09:00N 47°24' W 053°06'0 0.0 190 / 71002.9 0.1 0.9
2018-Apr-21 08:00N 47°24' W 053°06'0 0.0 190 / 41002.5 0.4 1.2
2018-Apr-21 07:00N 47°24' W 053°06'0 0.0 180 / 71002.4 0.5 1.3
2018-Apr-21 06:00N 47°24' W 053°06'0 0.0 200 / 41001.9 1.1 1.8
2018-Apr-21 05:00N 47°24' W 053°06'0 0.0 200 / 41001.5 1.1 1.9
2018-Apr-21 04:00N 47°24' W 053°06'0 0.0 200 / 81001.9 1.0 1.8
2018-Apr-21 03:00N 47°24' W 053°06'0 0.0 200 / 71001.6 1.3 2.1
2018-Apr-21 02:00N 47°24' W 053°06'0 0.0 190 / 71001.7 1.8 2.7
2018-Apr-21 01:00N 47°24' W 053°06'0 0.0 200 / 81002.0 1.9 2.7
2018-Apr-21 00:00N 47°24' W 053°06'0 0.0 180 / 81002.4 2.5 3.3
2018-Apr-20 23:00N 47°24' W 053°06'0 0.0 190 / 71002.3 2.5 3.4
2018-Apr-20 22:00N 47°24' W 053°06'0 0.0 190 / 61002.8 3.0 3.9
2018-Apr-20 21:00N 47°24' W 053°06'0 0.0 180 / 121002.7 4.3 5.2
2018-Apr-20 20:00N 47°24' W 053°06'0 0.0 190 / 51001.5 7.3 8.4
2018-Apr-20 19:00N 47°24' W 053°06'0 0.0 180 / 51002.5 5.0 6.1
2018-Apr-20 18:00N 47°24' W 053°06'0 0.0 190 / 61003.3 3.9 5.0
2018-Apr-20 17:00N 47°24' W 053°06'0 0.0 160 / 51003.6 4.4 5.4
2018-Apr-20 16:00N 47°24' W 053°06'0 0.0 140 / 61003.8 4.2 5.2
2018-Apr-20 15:00N 47°24' W 053°06'0 0.0 120 / 41005.3 3.6 4.6
2018-Apr-20 14:00N 47°24' W 053°06'0 0.0 120 / 51006.0 3.2 4.1
2018-Apr-20 13:00N 47°24' W 053°06'0 0.0 070 / 41006.6 2.4 3.3
2018-Apr-20 12:00N 47°24' W 053°06'0 0.0 070 / 61006.9 2.4 3.4
2018-Apr-20 11:00N 47°24' W 053°06'0 0.0 080 / 31008.0 2.3 3.2
2018-Apr-20 10:00N 47°24' W 053°06'0 0.0 360 / 61008.4 2.2 3.1
2018-Apr-20 09:00N 47°24' W 053°06'0 0.0 1009.2 1.9 2.8
2018-Apr-20 08:00N 47°24' W 053°06'0 0.0 350 / 11009.7 1.5 2.4
2018-Apr-20 07:00N 47°24' W 053°06'0 0.0 260 / 11009.8 1.3 2.2
2018-Apr-20 06:00N 47°24' W 053°06'0 0.0 140 / 21010.8 2.2 3.0
2018-Apr-20 05:00N 47°24' W 053°06'0 0.0 170 / 41010.4 1.3 2.1
2018-Apr-20 04:00N 47°24' W 053°06'0 0.0 210 / 41010.5 0.8 1.6
2018-Apr-20 03:00N 47°24' W 053°06'0 0.0 200 / 41010.6 1.8 2.5
2018-Apr-20 02:00N 47°24' W 053°06'0 0.0 190 / 21010.7 2.1 2.9
2018-Apr-20 01:00N 47°24' W 053°06'0 0.0 170 / 41009.9 2.7 3.5
2018-Apr-20 00:00N 47°24' W 053°06'0 0.0 240 / 11010.1 3.1 3.8
2018-Apr-19 23:00N 47°24' W 053°06'0 0.0 180 / 51008.9 3.8 4.6
2018-Apr-19 22:00N 47°24' W 053°06'0 0.0 210 / 51008.2 5.0 5.7
2018-Apr-19 21:00N 47°24' W 053°06'0 0.0 210 / 41006.9 6.6 7.3
2018-Apr-19 20:00N 47°24' W 053°06'0 0.0 210 / 61006.5 6.5 7.2
2018-Apr-19 19:00N 47°24' W 053°06'0 0.0 210 / 61006.4 7.6 8.3
2018-Apr-19 18:00N 47°24' W 053°06'0 0.0 220 / 81005.7 8.9 9.7
2018-Apr-19 17:00N 47°24' W 053°06'0 0.0 230 / 61005.9 7.9 8.6
2018-Apr-19 16:00N 47°24' W 053°06'0 0.0 220 / 61005.2 7.5 8.2
2018-Apr-19 15:00N 47°24' W 053°06'0 0.0 210 / 61004.9 6.6 7.4
2018-Apr-19 14:00N 47°24' W 053°06'0 0.0 180 / 71005.0 4.6 5.5
2018-Apr-19 13:00N 47°24' W 053°06'0 0.0 190 / 51004.7 3.4 4.3
2018-Apr-19 12:00N 47°24' W 053°06'0 0.0 200 / 31004.1 2.7 3.6
2018-Apr-19 11:00N 47°24' W 053°06'0 0.0 200 / 41003.7 2.6 3.5
2018-Apr-19 10:00N 47°24' W 053°06'0 0.0 190 / 41003.4 2.2 3.1
2018-Apr-19 09:00N 47°24' W 053°06'0 0.0 180 / 51002.8 2.3 3.1
2018-Apr-19 08:00N 47°24' W 053°06'0 0.0 190 / 31002.4 2.2 3.1
2018-Apr-19 07:00N 47°24' W 053°06'0 0.0 190 / 51002.6 2.4 3.3
2018-Apr-19 06:00N 47°24' W 053°06'0 0.0 190 / 51002.3 2.6 3.5
2018-Apr-19 05:00N 47°24' W 053°06'0 0.0 180 / 51001.4 3.9 4.8
2018-Apr-19 04:00N 47°24' W 053°06'0 0.0 180 / 31001.6 3.5 4.4
2018-Apr-19 03:00N 47°24' W 053°06'0 0.0 180 / 41001.9 3.4 4.3
2018-Apr-19 02:00N 47°24' W 053°06'0 0.0 210 / 31000.9 3.3 4.3
2018-Apr-19 01:00N 47°24' W 053°06'0 0.0 190 / 41000.6 4.0 4.9
2018-Apr-19 00:00N 47°24' W 053°06'0 0.0 170 / 2999.7 4.6 5.6
2018-Apr-18 23:00N 47°24' W 053°06'0 0.0 210 / 5999.5 6.0 7.0
2018-Apr-18 22:00N 47°24' W 053°06'0 0.0 190 / 2998.3 8.1 9.3
2018-Apr-18 21:00N 47°24' W 053°06'0 0.0 190 / 3997.9 8.7 9.9
2018-Apr-18 20:00N 47°24' W 053°06'0 0.0 170 / 6998.2 9.410.6
2018-Apr-18 19:00N 47°24' W 053°06'0 0.0 180 / 6998.7 8.810.0
2018-Apr-18 18:00N 47°24' W 053°06'0 0.0 180 / 6999.9 6.9 8.0
2018-Apr-18 17:00N 47°24' W 053°06'0 0.0 170 / 111000.9 5.7 6.7
2018-Apr-18 16:00N 47°24' W 053°06'0 0.0 170 / 151002.7 3.6 4.5
2018-Apr-18 14:00N 47°24' W 053°06'0 0.0 150 / 161005.7 2.9 3.8
2018-Apr-18 13:00N 47°24' W 053°06'0 0.0 150 / 161007.6 2.6 3.4
2018-Apr-18 12:00N 47°24' W 053°06'0 0.0 150 / 161009.8 2.0 2.8
2018-Apr-18 11:00N 47°24' W 053°06'0 0.0 160 / 161011.1 1.3 2.0
2018-Apr-18 10:00N 47°24' W 053°06'0 0.0 160 / 141012.5 1.0 1.7
2018-Apr-18 09:00N 47°24' W 053°06'0 0.0 160 / 121013.7 1.2 1.9
2018-Apr-18 08:00N 47°24' W 053°06'0 0.0 170 / 51015.2 1.7 2.3
2018-Apr-18 07:00N 47°24' W 053°06'0 0.0 210 / 11016.6 1.2 1.8
2018-Apr-18 06:00N 47°24' W 053°06'0 0.0 170 / 81017.7 1.5 2.1
2018-Apr-18 05:00N 47°24' W 053°06'0 0.0 170 / 41018.6 1.1 1.7
2018-Apr-18 04:00N 47°24' W 053°06'0 0.0 160 / 51019.6 1.1 1.7
2018-Apr-18 03:00N 47°24' W 053°06'0 0.0 180 / 41020.8 0.4 1.0
2018-Apr-18 02:00N 47°24' W 053°06'0 0.0 180 / 41021.6 -0.1 0.5
2018-Apr-18 01:00N 47°24' W 053°06'0 0.0 170 / 41022.4 -0.1 0.4
2018-Apr-18 00:00N 47°24' W 053°06'0 0.0 170 / 51022.5 -0.4 0.2
2018-Apr-17 23:00N 47°24' W 053°06'0 0.0 170 / 31022.6 0.2 0.8
2018-Apr-17 22:00N 47°24' W 053°06'0 0.0 170 / 21022.5 1.6 2.3
2018-Apr-17 21:00N 47°24' W 053°06'0 0.0 020 / 61022.5 1.5 2.2
2018-Apr-17 20:00N 47°24' W 053°06'0 0.0 010 / 71022.4 2.1 2.8
2018-Apr-17 19:00N 47°24' W 053°06'0 0.0 350 / 81022.5 2.8 3.4
2018-Apr-17 18:00N 47°24' W 053°06'0 0.0 020 / 71022.5 4.0 4.6
2018-Apr-17 17:00N 47°24' W 053°06'0 0.0 010 / 71022.9 4.2 4.8
2018-Apr-17 16:00N 47°24' W 053°06'0 0.0 010 / 71022.9 3.8 4.3
2018-Apr-17 15:00N 47°24' W 053°06'0 0.0 020 / 51023.3 4.2 4.8
2018-Apr-17 14:00N 47°24' W 053°06'0 0.0 020 / 61023.7 2.7 3.3
2018-Apr-17 13:00N 47°24' W 053°06'0 0.0 030 / 31024.0 2.8 3.4
2018-Apr-17 12:00N 47°24' W 053°06'0 0.0 050 / 21024.1 1.5 2.0
2018-Apr-17 11:00N 47°24' W 053°06'0 0.0 200 / 21024.5 -0.5-0.0
2018-Apr-17 10:00N 47°24' W 053°06'0 0.0 220 / 31024.6 -2.7-2.3
2018-Apr-17 09:00N 47°24' W 053°06'0 0.0 270 / 11024.4 -5.1-4.7
2018-Apr-17 08:00N 47°24' W 053°06'0 0.0 310 / 11024.5 -3.7-3.3
2018-Apr-17 07:00N 47°24' W 053°06'0 0.0 240 / 21024.7 -6.0-5.6
2018-Apr-17 06:00N 47°24' W 053°06'0 0.0 1025.0 -5.1-4.7
2018-Apr-17 05:00N 47°24' W 053°06'0 0.0 1024.9 -5.2-4.9
2018-Apr-17 04:00N 47°24' W 053°06'0 0.0 240 / 11025.2 -5.0-4.6
2018-Apr-17 03:00N 47°24' W 053°06'0 0.0 320 / 11025.5 -4.3-3.9
2018-Apr-17 02:00N 47°24' W 053°06'0 0.0 180 / 11025.6 -3.6-3.2
2018-Apr-17 01:00N 47°24' W 053°06'0 0.0 160 / 11025.8 -2.3-1.9
2018-Apr-17 00:00N 47°24' W 053°06'0 0.0 1026.1 -1.5-1.0
2018-Apr-16 23:00N 47°24' W 053°06'0 0.0 330 / 11025.6 -0.4-0.0
2018-Apr-16 22:00N 47°24' W 053°06'0 0.0 320 / 21025.0 0.8 1.3
2018-Apr-16 21:00N 47°24' W 053°06'0 0.0 020 / 81025.1 2.4 2.8
2018-Apr-16 20:00N 47°24' W 053°06'0 0.0 020 / 81024.9 2.5 3.0
2018-Apr-16 19:00N 47°24' W 053°06'0 0.0 350 / 141025.0 3.9 4.3
2018-Apr-16 18:00N 47°24' W 053°06'0 0.0 350 / 111025.4 4.2 4.7
2018-Apr-16 17:00N 47°24' W 053°06'0 0.0 340 / 101025.4 3.7 4.2
2018-Apr-16 16:00N 47°24' W 053°06'0 0.0 350 / 121025.9 2.9 3.3
2018-Apr-16 15:00N 47°24' W 053°06'0 0.0 350 / 111026.3 2.8 3.3
2018-Apr-16 14:00N 47°24' W 053°06'0 0.0 350 / 121027.0 2.0 2.5
2018-Apr-16 13:00N 47°24' W 053°06'0 0.0 330 / 71027.1 1.7 2.2
2018-Apr-16 12:00N 47°24' W 053°06'0 0.0 330 / 71027.7 1.2 1.6
2018-Apr-16 11:00N 47°24' W 053°06'0 0.0 350 / 81028.1 0.2 0.6
2018-Apr-16 10:00N 47°24' W 053°06'0 0.0 320 / 41028.2 -0.6-0.1
2018-Apr-16 09:00N 47°24' W 053°06'0 0.0 300 / 31028.1 -1.7-1.3
2018-Apr-16 08:00N 47°24' W 053°06'0 0.0 310 / 21027.9 -1.7-1.3
2018-Apr-16 07:00N 47°24' W 053°06'0 0.0 340 / 51028.1 -1.0-0.6
2018-Apr-16 06:00N 47°24' W 053°06'0 0.0 350 / 91028.1 -0.7-0.3
2018-Apr-16 05:00N 47°24' W 053°06'0 0.0 340 / 81028.2 -0.8-0.4
2018-Apr-16 04:00N 47°24' W 053°06'0 0.0 360 / 141027.6 -0.4-0.0
2018-Apr-16 03:00N 47°24' W 053°06'0 0.0 350 / 171027.2 0.2 0.6
2018-Apr-16 02:00N 47°24' W 053°06'0 0.0 350 / 141026.3 0.7 1.1
2018-Apr-16 01:00N 47°24' W 053°06'0 0.0 350 / 171025.5 0.8 1.2
2018-Apr-16 00:00N 47°24' W 053°06'0 0.0 350 / 161024.6 0.9 1.4
2018-Apr-15 23:00N 47°24' W 053°06'0 0.0 340 / 131023.5 0.8 1.3
2018-Apr-15 22:00N 47°24' W 053°06'0 0.0 340 / 131022.3 0.5 1.1
2018-Apr-15 21:00N 47°24' W 053°06'0 0.0 340 / 141020.9 1.1 1.6
2018-Apr-15 20:00N 47°24' W 053°06'0 0.0 340 / 191019.4 1.7 2.2
2018-Apr-15 19:00N 47°24' W 053°06'0 0.0 340 / 161018.4 2.4 2.9
2018-Apr-15 18:00N 47°24' W 053°06'0 0.0 350 / 171017.5 2.9 3.4
2018-Apr-15 17:00N 47°24' W 053°06'0 0.0 340 / 121016.5 2.5 2.9
2018-Apr-15 16:00N 47°24' W 053°06'0 0.0 330 / 101015.9 2.4 2.8
2018-Apr-15 15:00N 47°24' W 053°06'0 0.0 320 / 61015.6 1.1 1.5
2018-Apr-15 14:00N 47°24' W 053°06'0 0.0 320 / 71014.5 0.7 1.1
2018-Apr-15 13:00N 47°24' W 053°06'0 0.0 300 / 41014.3 -1.0-0.6
2018-Apr-15 12:00N 47°24' W 053°06'0 0.0 300 / 21014.0 -2.9-2.6
2018-Apr-15 11:00N 47°24' W 053°06'0 0.0 310 / 31013.4 -4.0-3.7
2018-Apr-15 10:00N 47°24' W 053°06'0 0.0 300 / 11011.9 -4.5-4.2
2018-Apr-15 09:00N 47°24' W 053°06'0 0.0 240 / 21010.3 -4.8-4.5
2018-Apr-15 08:00N 47°24' W 053°06'0 0.0 320 / 61008.3 -4.4-4.1
2018-Apr-15 07:00N 47°24' W 053°06'0 0.0 310 / 51007.0 -3.9-3.6
2018-Apr-15 06:00N 47°24' W 053°06'0 0.0 330 / 71006.1 -3.4-3.1
2018-Apr-15 05:00N 47°24' W 053°06'0 0.0 320 / 71004.9 -3.2-2.8
2018-Apr-15 04:00N 47°24' W 053°06'0 0.0 330 / 61003.9 -3.2-2.9
2018-Apr-15 03:00N 47°24' W 053°06'0 0.0 320 / 41002.9 -3.4-3.1
2018-Apr-15 02:00N 47°24' W 053°06'0 0.0 310 / 51002.2 -3.4-3.1
2018-Apr-15 01:00N 47°24' W 053°06'0 0.0 310 / 61001.7 -3.4-3.0
2018-Apr-15 00:00N 47°24' W 053°06'0 0.0 310 / 61001.0 -2.8-2.5
2018-Apr-14 23:00N 47°24' W 053°06'0 0.0 310 / 7999.2 -1.7-1.4
2018-Apr-14 22:00N 47°24' W 053°06'0 0.0 300 / 5998.5 -0.0 0.6
2018-Apr-14 21:00N 47°24' W 053°06'0 0.0 310 / 4998.2 1.3 2.0
2018-Apr-14 20:00N 47°24' W 053°06'0 0.0 230 / 6997.4 3.7 4.5
2018-Apr-14 19:00N 47°24' W 053°06'0 0.0 200 / 6998.8 4.0 4.8
2018-Apr-14 18:00N 47°24' W 053°06'0 0.0 200 / 51000.6 4.4 5.2
2018-Apr-14 17:00N 47°24' W 053°06'0 0.0 190 / 71003.2 4.6 5.3
2018-Apr-14 16:00N 47°24' W 053°06'0 0.0 200 / 61004.8 5.1 5.9
2018-Apr-14 15:00N 47°24' W 053°06'0 0.0 210 / 41006.2 3.6 4.4
2018-Apr-14 14:00N 47°24' W 053°06'0 0.0 220 / 41007.1 2.6 3.5
2018-Apr-14 13:00N 47°24' W 053°06'0 0.0 220 / 41007.4 2.1 3.0
2018-Apr-14 12:00N 47°24' W 053°06'0 0.0 260 / 31007.0 1.7 2.7
2018-Apr-14 11:00N 47°24' W 053°06'0 0.0 240 / 21007.1 2.0 3.0
2018-Apr-14 10:00N 47°24' W 053°06'0 0.0 240 / 31006.7 1.7 2.7
2018-Apr-14 09:00N 47°24' W 053°06'0 0.0 220 / 31006.0 1.4 2.4
2018-Apr-14 08:00N 47°24' W 053°06'0 0.0 220 / 31005.4 1.6 2.6
2018-Apr-14 07:00N 47°24' W 053°06'0 0.0 170 / 51005.2 2.0 3.0
2018-Apr-14 06:00N 47°24' W 053°06'0 0.0 170 / 51005.8 1.4 2.3
2018-Apr-14 05:00N 47°24' W 053°06'0 0.0 190 / 101007.1 0.4 1.2
2018-Apr-14 04:00N 47°24' W 053°06'0 0.0 170 / 171008.7 0.2 1.0
2018-Apr-14 03:00N 47°24' W 053°06'0 0.0 170 / 161010.4 0.4 1.2
2018-Apr-14 02:00N 47°24' W 053°06'0 0.0 170 / 101013.0 0.1 0.8
2018-Apr-14 01:00N 47°24' W 053°06'0 0.0 160 / 91015.2 0.1 0.8
2018-Apr-14 00:00N 47°24' W 053°06'0 0.0 170 / 71017.4 -0.6 0.1
2018-Apr-13 23:00N 47°24' W 053°06'0 0.0 160 / 81018.5 0.7 1.3
2018-Apr-13 22:00N 47°24' W 053°06'0 0.0 180 / 81018.8 1.8 2.3
2018-Apr-13 21:00N 47°24' W 053°06'0 0.0
2018-Apr-13 20:00N 47°24' W 053°06'0 0.0 200 / 121020.5 4.1 4.6
2018-Apr-13 19:00N 47°24' W 053°06'0 0.0 180 / 101021.2 4.9 5.4
2018-Apr-13 18:00N 47°24' W 053°06'0 0.0 180 / 111021.7 6.7 7.2
2018-Apr-13 17:00N 47°24' W 053°06'0 0.0 220 / 51022.1 6.8 7.4
2018-Apr-13 16:00N 47°24' W 053°06'0 0.0 160 / 51022.5 7.0 7.6
2018-Apr-13 15:00N 47°24' W 053°06'0 0.0 180 / 81023.0 5.8 6.4
2018-Apr-13 14:00N 47°24' W 053°06'0 0.0 200 / 31023.9 5.2 5.8
2018-Apr-13 13:00N 47°24' W 053°06'0 0.0 230 / 41023.7 3.7 4.4
2018-Apr-13 12:00N 47°24' W 053°06'0 0.0 230 / 41024.1 2.0 2.6
2018-Apr-13 11:00N 47°24' W 053°06'0 0.0 070 / 11024.1 -0.1 0.5
2018-Apr-13 10:00N 47°24' W 053°06'0 0.0 120 / 11023.8 -3.2-2.6
2018-Apr-13 09:00N 47°24' W 053°06'0 0.0 210 / 21023.3 -6.7-6.2
2018-Apr-13 08:00N 47°24' W 053°06'0 0.0 1023.2 -6.0-5.5
2018-Apr-13 07:00N 47°24' W 053°06'0 0.0 1022.4 -6.0-5.5
2018-Apr-13 06:00N 47°24' W 053°06'0 0.0 1021.7 -5.0-4.5
2018-Apr-13 05:00N 47°24' W 053°06'0 0.0 1021.3 -4.6-4.1
2018-Apr-13 04:00N 47°24' W 053°06'0 0.0 150 / 11021.4 -3.5-3.0
2018-Apr-13 03:00N 47°24' W 053°06'0 0.0 1021.1 -3.6-3.1
2018-Apr-13 02:00N 47°24' W 053°06'0 0.0 1020.7 -2.0-1.5
2018-Apr-13 01:00N 47°24' W 053°06'0 0.0 1020.2 -1.7-1.2
2018-Apr-13 00:00N 47°24' W 053°06'0 0.0 1019.6 -1.2-0.7
2018-Apr-12 23:00N 47°24' W 053°06'0 0.0 030 / 31019.0 -0.2 0.4
2018-Apr-12 22:00N 47°24' W 053°06'0 0.0 030 / 51018.4 1.1 1.7
2018-Apr-12 21:00N 47°24' W 053°06'0 0.0 010 / 101018.0 1.8 2.3
2018-Apr-12 20:00N 47°24' W 053°06'0 0.0 360 / 101017.8 1.0 1.7
2018-Apr-12 19:00N 47°24' W 053°06'0 0.0 010 / 111017.9 0.6 1.3
2018-Apr-12 18:00N 47°24' W 053°06'0 0.0 010 / 121017.8 0.2 0.9
2018-Apr-12 17:00N 47°24' W 053°06'0 0.0 010 / 111018.0 -0.0 0.6
2018-Apr-12 16:00N 47°24' W 053°06'0 0.0 020 / 111018.1 -0.2 0.5
2018-Apr-12 15:00N 47°24' W 053°06'0 0.0 020 / 81018.5 -0.5 0.2
2018-Apr-12 14:00N 47°24' W 053°06'0 0.0 010 / 81019.0 0.2 0.9
2018-Apr-12 13:00N 47°24' W 053°06'   010 / 101019.2 -0.6 0.1

Dump ship's entire track history